createdAt,value
2023-02-16T00:02:07.203Z,-28.33
2023-02-16T00:07:11.109Z,-28.33
2023-02-16T00:12:53.479Z,-28.89
2023-02-16T00:18:00.424Z,-28.47
2023-02-16T00:23:04.272Z,-28.54
2023-02-16T00:28:19.954Z,-28.57
2023-02-16T00:33:23.751Z,-28.62
2023-02-16T00:38:27.741Z,-28.58
2023-02-16T00:43:32.749Z,-28.63
2023-02-16T00:48:37.642Z,-28.49
2023-02-16T00:53:41.526Z,-28.54
2023-02-16T00:58:45.510Z,-28.58
2023-02-16T01:03:49.483Z,-28.64
2023-02-16T01:09:19.539Z,-28.67
2023-02-16T01:14:23.383Z,-28.74
2023-02-16T01:19:27.802Z,-28.78
2023-02-16T01:24:31.692Z,-29.42
2023-02-16T01:29:36.124Z,-28.84
2023-02-16T01:34:40.098Z,-28.91
2023-02-16T01:39:44.065Z,-28.89
2023-02-16T01:44:53.752Z,-28.88
2023-02-16T01:50:02.126Z,-29.35
2023-02-16T01:55:19.713Z,-28.77
2023-02-16T02:00:32.367Z,-28.78
2023-02-16T02:05:38.135Z,-28.79
2023-02-16T02:11:07.155Z,-28.79
2023-02-16T02:16:12.611Z,-28.81
2023-02-16T02:21:59.237Z,-28.47
2023-02-16T02:27:21.166Z,-28.14
2023-02-16T02:32:37.818Z,-27.91
2023-02-16T02:38:16.986Z,-27.67
2023-02-16T02:43:20.830Z,-27.47
2023-02-16T02:48:25.301Z,-27.21
2023-02-16T02:53:30.159Z,-26.99
2023-02-16T02:59:13.022Z,-26.69
2023-02-16T03:04:23.680Z,-26.51
2023-02-16T03:09:28.552Z,-26.29
2023-02-16T03:14:31.982Z,-25.95
2023-02-16T03:19:54.236Z,-25.69
2023-02-16T03:25:16.399Z,-25.32
2023-02-16T03:30:22.809Z,-25.04
2023-02-16T03:35:27.111Z,-24.86
2023-02-16T03:40:35.858Z,-24.41
2023-02-16T03:45:43.235Z,-24.14
2023-02-16T03:50:47.487Z,-23.85
2023-02-16T03:55:51.323Z,-23.48
2023-02-16T04:00:55.851Z,-23.25
2023-02-16T04:05:59.778Z,-22.91
2023-02-16T04:11:23.565Z,-22.64
2023-02-16T04:16:27.585Z,-22.33
2023-02-16T04:21:31.507Z,-22.01
2023-02-16T04:26:35.988Z,-21.73
2023-02-16T04:31:40.141Z,-21.46
2023-02-16T04:36:44.141Z,-21.19
2023-02-16T04:41:48.322Z,-20.88
2023-02-16T04:46:52.220Z,-20.58
2023-02-16T04:51:56.193Z,-20.25
2023-02-16T04:57:01.069Z,-19.95
2023-02-16T05:02:05.401Z,-19.86
2023-02-16T05:07:09.381Z,-19.66
2023-02-16T05:12:33.050Z,-19.38
2023-02-16T05:17:36.931Z,-19.17
2023-02-16T05:22:40.811Z,-18.97
2023-02-16T05:27:44.951Z,-18.94
2023-02-16T05:32:49.133Z,-18.72
2023-02-16T05:37:52.919Z,-18.64
2023-02-16T05:42:57.108Z,-18.73
2023-02-16T05:48:03.689Z,-18.48
2023-02-16T05:53:08.970Z,-18.38
2023-02-16T05:58:12.897Z,-18.26
2023-02-16T06:03:16.803Z,-18.02
2023-02-16T06:08:20.674Z,-17.80
2023-02-16T06:13:25.441Z,-17.59
2023-02-16T06:18:30.076Z,-17.76
2023-02-16T06:23:33.845Z,-17.13
2023-02-16T06:28:37.793Z,-17.32
2023-02-16T06:33:41.873Z,-16.67
2023-02-16T06:38:46.561Z,-16.43
2023-02-16T06:43:50.380Z,-16.22
2023-02-16T06:48:55.459Z,-16.03
2023-02-16T06:53:59.612Z,-15.98
2023-02-16T06:59:03.972Z,-15.71
2023-02-16T07:04:08.217Z,-15.53
2023-02-16T07:09:12.951Z,-15.39
2023-02-16T07:14:17.708Z,-15.23
2023-02-16T07:19:21.746Z,-15.10
2023-02-16T07:24:25.792Z,-14.94
2023-02-16T07:29:30.653Z,-14.80
2023-02-16T07:34:34.462Z,-14.68
2023-02-16T07:39:38.609Z,-14.54
2023-02-16T07:44:42.434Z,-14.55
2023-02-16T07:49:46.465Z,-14.31
2023-02-16T07:54:50.366Z,-14.19
2023-02-16T07:59:56.583Z,-14.09
2023-02-16T08:05:01.194Z,-13.89
2023-02-16T08:10:07.724Z,-13.79
2023-02-16T08:15:12.681Z,-13.61
2023-02-16T08:20:16.755Z,-13.48
2023-02-16T08:25:20.518Z,-13.36
2023-02-16T08:30:26.498Z,-13.20
2023-02-16T08:35:33.361Z,-13.11
2023-02-16T08:40:37.199Z,-13.05
2023-02-16T08:45:47.748Z,-13.43
2023-02-16T08:50:55.652Z,-13.30
2023-02-16T08:56:01.454Z,-12.87
2023-02-16T09:01:09.148Z,-12.82
2023-02-16T09:06:14.909Z,-13.27
2023-02-16T09:11:19.570Z,-12.79
2023-02-16T09:16:25.092Z,-12.60
2023-02-16T09:21:34.602Z,-12.60
2023-02-16T09:26:43.598Z,-12.64
2023-02-16T09:31:47.557Z,-12.98
2023-02-16T09:36:51.871Z,-12.61
2023-02-16T09:42:34.505Z,-12.58
2023-02-16T09:47:48.225Z,-12.59
2023-02-16T09:52:52.544Z,-12.58
2023-02-16T09:58:19.656Z,-12.55
2023-02-16T10:03:42.194Z,-12.55
2023-02-16T10:08:51.216Z,-12.59
2023-02-16T10:13:59.821Z,-12.66
2023-02-16T10:19:12.687Z,-12.98
2023-02-16T10:24:17.645Z,-12.74
2023-02-16T10:29:24.785Z,-12.82
2023-02-16T10:35:00.196Z,-12.91
2023-02-16T10:40:23.494Z,-12.94
2023-02-16T10:45:32.764Z,-12.99
2023-02-16T10:50:53.271Z,-13.04
2023-02-16T10:55:59.128Z,-13.09
2023-02-16T11:01:22.908Z,-13.20
2023-02-16T11:06:27.649Z,-13.32
2023-02-16T11:11:40.392Z,-13.40
2023-02-16T11:16:44.333Z,-13.50
2023-02-16T11:21:52.841Z,-13.64
2023-02-16T11:27:26.857Z,-13.85
2023-02-16T11:32:35.221Z,-14.08
2023-02-16T11:37:41.703Z,-14.28
2023-02-16T11:42:52.636Z,-14.47
2023-02-16T11:48:02.870Z,-14.64
2023-02-16T11:53:13.756Z,-14.78
2023-02-16T11:58:28.720Z,-15.02
2023-02-16T12:04:00.918Z,-15.26
2023-02-16T12:09:14.751Z,-15.78
2023-02-16T12:14:39.038Z,-16.03
2023-02-16T12:19:49.738Z,-16.13
2023-02-16T12:25:06.103Z,-16.33
2023-02-16T12:30:20.884Z,-16.66
2023-02-16T12:35:37.365Z,-16.86
2023-02-16T12:41:24.602Z,-16.92
2023-02-16T12:46:32.063Z,-17.17
2023-02-16T12:51:47.200Z,-17.23
2023-02-16T12:57:08.858Z,-17.31
2023-02-16T13:02:23.889Z,-17.51
2023-02-16T13:07:41.220Z,-17.78
2023-02-16T13:13:17.331Z,-18.07
2023-02-16T13:18:29.149Z,-18.19
2023-02-16T13:23:48.014Z,-18.49
2023-02-16T13:29:07.752Z,-18.69
2023-02-16T13:34:39.172Z,-18.82
2023-02-16T13:40:02.113Z,-19.03
2023-02-16T13:45:19.379Z,-19.23
2023-02-16T13:50:23.567Z,-19.38
2023-02-16T13:55:35.724Z,-19.49
2023-02-16T14:00:46.306Z,-19.76
2023-02-16T14:05:54.556Z,-19.82
2023-02-16T14:11:06.801Z,-19.76
2023-02-16T14:16:12.792Z,-19.91
2023-02-16T14:21:48.074Z,-19.92
2023-02-16T14:27:03.946Z,-20.24
2023-02-16T14:32:40.299Z,-20.50
2023-02-16T14:37:59.174Z,-20.55
2023-02-16T14:43:08.110Z,-20.62
2023-02-16T14:48:36.741Z,-20.74
2023-02-16T14:54:11.251Z,-20.92
2023-02-16T14:59:46.420Z,-21.06
2023-02-16T15:04:50.459Z,-21.17
2023-02-16T15:09:58.596Z,-21.30
2023-02-16T15:15:21.135Z,-21.39
2023-02-16T15:20:32.443Z,-21.46
2023-02-16T15:25:40.017Z,-21.53
2023-02-16T15:31:00.387Z,-21.65
2023-02-16T15:36:10.108Z,-21.76
2023-02-16T15:41:16.178Z,-21.82
2023-02-16T15:46:40.489Z,-21.96
2023-02-16T15:51:45.959Z,-22.02
2023-02-16T15:56:53.327Z,-22.09
2023-02-16T16:02:04.963Z,-22.18
2023-02-16T16:07:14.939Z,-22.29
2023-02-16T16:12:21.437Z,-22.29
2023-02-16T16:17:33.064Z,-22.47
2023-02-16T16:22:43.643Z,-22.66
2023-02-16T16:27:49.375Z,-22.75
2023-02-16T16:33:02.215Z,-22.98
2023-02-16T16:38:18.839Z,-22.78
2023-02-16T16:43:30.621Z,-22.80
2023-02-16T16:48:40.055Z,-22.87
2023-02-16T16:54:04.808Z,-22.96
2023-02-16T16:59:10.079Z,-23.11
2023-02-16T17:04:13.873Z,-23.22
2023-02-16T17:09:17.927Z,-23.29
2023-02-16T17:14:22.438Z,-23.39
2023-02-16T17:19:30.202Z,-23.37
2023-02-16T17:24:33.983Z,-23.38
2023-02-16T17:29:38.336Z,-23.52
2023-02-16T17:34:42.208Z,-23.61
2023-02-16T17:39:46.139Z,-23.77
2023-02-16T17:44:50.509Z,-23.90
2023-02-16T17:49:54.384Z,-23.96
2023-02-16T17:54:58.240Z,-23.97
2023-02-16T18:00:02.063Z,-23.96
2023-02-16T18:05:09.093Z,-24.14
2023-02-16T18:10:38.325Z,-24.13
2023-02-16T18:15:46.505Z,-24.12
2023-02-16T18:20:50.832Z,-24.20
2023-02-16T18:25:54.721Z,-24.26
2023-02-16T18:30:59.233Z,-24.33
2023-02-16T18:36:03.783Z,-24.41
2023-02-16T18:41:09.076Z,-24.52
2023-02-16T18:46:12.956Z,-24.69
2023-02-16T18:51:21.722Z,-24.60
2023-02-16T18:56:26.352Z,-24.44
2023-02-16T19:01:33.390Z,-24.50
2023-02-16T19:06:37.192Z,-24.89
2023-02-16T19:11:41.798Z,-24.41
2023-02-16T19:16:47.032Z,-24.50
2023-02-16T19:21:51.325Z,-24.60
2023-02-16T19:26:55.318Z,-24.97
2023-02-16T19:32:00.371Z,-24.81
2023-02-16T19:37:04.270Z,-24.80
2023-02-16T19:42:08.180Z,-24.87
2023-02-16T19:47:11.976Z,-24.67
2023-02-16T19:52:15.994Z,-24.77
2023-02-16T19:57:20.346Z,-24.56
2023-02-16T20:02:24.181Z,-24.72
2023-02-16T20:07:28.875Z,-24.58
2023-02-16T20:12:32.833Z,-24.66
2023-02-16T20:17:36.901Z,-24.63
2023-02-16T20:22:40.873Z,-24.56
2023-02-16T20:27:44.685Z,-24.48
2023-02-16T20:32:49.623Z,-24.42
2023-02-16T20:37:54.438Z,-24.52
2023-02-16T20:42:58.451Z,-24.33
2023-02-16T20:48:04.605Z,-24.24
2023-02-16T20:53:08.529Z,-24.18
2023-02-16T20:58:12.337Z,-24.07
2023-02-16T21:03:16.428Z,-24.46
2023-02-16T21:08:20.480Z,-23.92
2023-02-16T21:13:24.468Z,-23.89
2023-02-16T21:18:28.625Z,-23.91
2023-02-16T21:23:32.564Z,-23.78
2023-02-16T21:28:36.533Z,-23.75
2023-02-16T21:33:40.776Z,-23.66
2023-02-16T21:38:45.822Z,-23.62
2023-02-16T21:43:49.767Z,-23.69
2023-02-16T21:48:53.769Z,-23.81
2023-02-16T21:53:59.656Z,-23.44
2023-02-16T21:59:04.239Z,-23.31
2023-02-16T22:04:09.733Z,-23.23
2023-02-16T22:09:18.472Z,-23.10
2023-02-16T22:14:22.251Z,-22.97
2023-02-16T22:19:27.842Z,-22.81
2023-02-16T22:24:31.532Z,-22.70
2023-02-16T22:29:35.568Z,-22.59
2023-02-16T22:34:39.579Z,-22.47
2023-02-16T22:39:43.473Z,-22.47
2023-02-16T22:44:48.096Z,-22.43
2023-02-16T22:49:52.858Z,-22.29
2023-02-16T22:54:56.896Z,-22.22
2023-02-16T23:00:01.836Z,-22.05
2023-02-16T23:05:06.542Z,-22.02
2023-02-16T23:10:10.652Z,-21.94
2023-02-16T23:15:15.714Z,-21.88
2023-02-16T23:20:19.950Z,-21.76
2023-02-16T23:25:35.742Z,-21.49
2023-02-16T23:30:42.600Z,-21.29
2023-02-16T23:35:46.315Z,-21.18
2023-02-16T23:41:00.664Z,-21.06
2023-02-16T23:46:05.761Z,-20.96
2023-02-16T23:51:12.093Z,-20.84
2023-02-16T23:56:23.090Z,-20.66
